sensor_id;sensor_type;location;lat;lon;timestamp;pressure;altitude;pressure_sealevel;temperature;humidity
30730;BME280;17476;48.458;7.928;2023-02-28T00:00:35;100694.81;;;0.77;60.82
30730;BME280;17476;48.458;7.928;2023-02-28T00:03:01;100688.91;;;0.75;62.14
30730;BME280;17476;48.458;7.928;2023-02-28T00:05:28;100689.81;;;0.74;61.67
30730;BME280;17476;48.458;7.928;2023-02-28T00:07:55;100696.03;;;0.70;61.81
30730;BME280;17476;48.458;7.928;2023-02-28T00:10:28;100694.38;;;0.69;61.46
30730;BME280;17476;48.458;7.928;2023-02-28T00:13:00;100699.59;;;0.67;60.97
30730;BME280;17476;48.458;7.928;2023-02-28T00:15:26;100702.44;;;0.63;62.41
30730;BME280;17476;48.458;7.928;2023-02-28T00:17:52;100694.63;;;0.64;62.46
30730;BME280;17476;48.458;7.928;2023-02-28T00:20:18;100686.56;;;0.70;60.90
30730;BME280;17476;48.458;7.928;2023-02-28T00:22:50;100698.34;;;0.59;60.87
30730;BME280;17476;48.458;7.928;2023-02-28T00:25:20;100701.16;;;0.54;62.13
30730;BME280;17476;48.458;7.928;2023-02-28T00:27:47;100696.69;;;0.58;62.55
30730;BME280;17476;48.458;7.928;2023-02-28T00:30:18;100693.38;;;0.56;63.22
30730;BME280;17476;48.458;7.928;2023-02-28T00:32:44;100700.19;;;0.57;62.87
30730;BME280;17476;48.458;7.928;2023-02-28T00:35:11;100694.03;;;0.59;62.98
30730;BME280;17476;48.458;7.928;2023-02-28T00:37:37;100682.81;;;0.60;63.02
30730;BME280;17476;48.458;7.928;2023-02-28T00:40:05;100690.63;;;0.59;63.32
30730;BME280;17476;48.458;7.928;2023-02-28T00:42:33;100684.41;;;0.63;63.34
30730;BME280;17476;48.458;7.928;2023-02-28T00:44:59;100682.59;;;0.65;62.60
30730;BME280;17476;48.458;7.928;2023-02-28T00:47:25;100687.06;;;0.61;63.28
30730;BME280;17476;48.458;7.928;2023-02-28T00:49:51;100680.94;;;0.64;62.71
30730;BME280;17476;48.458;7.928;2023-02-28T00:52:17;100683.81;;;0.58;62.13
30730;BME280;17476;48.458;7.928;2023-02-28T00:54:43;100687.97;;;0.60;62.56
30730;BME280;17476;48.458;7.928;2023-02-28T00:57:09;100677.84;;;0.57;62.67
30730;BME280;17476;48.458;7.928;2023-02-28T00:59:35;100685.16;;;0.65;63.20
30730;BME280;17476;48.458;7.928;2023-02-28T01:02:01;100680.94;;;0.64;63.07
30730;BME280;17476;48.458;7.928;2023-02-28T01:04:27;100691.03;;;0.67;62.88
30730;BME280;17476;48.458;7.928;2023-02-28T01:06:52;100687.72;;;0.65;63.70
30730;BME280;17476;48.458;7.928;2023-02-28T01:09:19;100683.31;;;0.67;63.71
30730;BME280;17476;48.458;7.928;2023-02-28T01:11:45;100695.78;;;0.59;63.66
30730;BME280;17476;48.458;7.928;2023-02-28T01:14:16;100690.47;;;0.62;64.05
30730;BME280;17476;48.458;7.928;2023-02-28T01:16:43;100687.00;;;0.63;63.26
30730;BME280;17476;48.458;7.928;2023-02-28T01:19:09;100693.06;;;0.62;63.52
30730;BME280;17476;48.458;7.928;2023-02-28T01:21:35;100689.38;;;0.66;64.45
30730;BME280;17476;48.458;7.928;2023-02-28T01:24:03;100687.22;;;0.74;64.52
30730;BME280;17476;48.458;7.928;2023-02-28T01:26:30;100687.81;;;0.79;64.21
30730;BME280;17476;48.458;7.928;2023-02-28T01:28:56;100685.97;;;0.81;64.41
30730;BME280;17476;48.458;7.928;2023-02-28T01:31:22;100685.97;;;0.81;63.02
30730;BME280;17476;48.458;7.928;2023-02-28T01:33:49;100685.59;;;0.89;63.21
30730;BME280;17476;48.458;7.928;2023-02-28T01:36:21;100687.41;;;0.87;65.15
30730;BME280;17476;48.458;7.928;2023-02-28T01:38:48;100687.06;;;0.93;63.85
30730;BME280;17476;48.458;7.928;2023-02-28T01:41:27;100682.25;;;1.02;63.59
30730;BME280;17476;48.458;7.928;2023-02-28T01:44:07;100683.91;;;1.03;63.17
30730;BME280;17476;48.458;7.928;2023-02-28T01:46:35;100684.84;;;1.02;63.41
30730;BME280;17476;48.458;7.928;2023-02-28T01:49:15;100686.50;;;1.03;64.33
30730;BME280;17476;48.458;7.928;2023-02-28T01:51:54;100682.91;;;1.06;63.94
30730;BME280;17476;48.458;7.928;2023-02-28T01:54:26;100680.44;;;1.04;64.16
30730;BME280;17476;48.458;7.928;2023-02-28T01:57:07;100684.50;;;1.08;64.44
30730;BME280;17476;48.458;7.928;2023-02-28T01:59:38;100681.50;;;1.16;63.80
30730;BME280;17476;48.458;7.928;2023-02-28T02:02:12;100673.59;;;1.19;63.97
30730;BME280;17476;48.458;7.928;2023-02-28T02:04:54;100677.25;;;1.15;64.07
30730;BME280;17476;48.458;7.928;2023-02-28T02:07:21;100668.44;;;1.19;64.23
30730;BME280;17476;48.458;7.928;2023-02-28T02:09:48;100680.16;;;1.25;64.79
30730;BME280;17476;48.458;7.928;2023-02-28T02:12:37;100677.56;;;1.25;63.99
30730;BME280;17476;48.458;7.928;2023-02-28T02:15:22;100668.78;;;1.29;64.91
30730;BME280;17476;48.458;7.928;2023-02-28T02:17:52;100672.09;;;1.31;64.57
30730;BME280;17476;48.458;7.928;2023-02-28T02:32:08;100668.06;;;1.41;66.92
30730;BME280;17476;48.458;7.928;2023-02-28T02:38:09;100658.66;;;1.40;66.37
30730;BME280;17476;48.458;7.928;2023-02-28T02:43:21;100656.81;;;1.42;66.96
30730;BME280;17476;48.458;7.928;2023-02-28T02:45:54;100655.44;;;1.36;66.28
30730;BME280;17476;48.458;7.928;2023-02-28T02:48:30;100658.28;;;1.32;66.76
30730;BME280;17476;48.458;7.928;2023-02-28T02:51:00;100663.44;;;1.32;66.30
30730;BME280;17476;48.458;7.928;2023-02-28T02:53:35;100661.53;;;1.35;65.77
30730;BME280;17476;48.458;7.928;2023-02-28T02:56:04;100656.78;;;1.28;66.30
30730;BME280;17476;48.458;7.928;2023-02-28T02:58:37;100664.34;;;1.31;67.95
30730;BME280;17476;48.458;7.928;2023-02-28T03:01:12;100658.28;;;1.32;67.18
30730;BME280;17476;48.458;7.928;2023-02-28T03:03:39;100654.69;;;1.34;66.44
30730;BME280;17476;48.458;7.928;2023-02-28T03:06:05;100652.28;;;1.31;65.75
30730;BME280;17476;48.458;7.928;2023-02-28T03:08:37;100654.03;;;1.31;66.02
30730;BME280;17476;48.458;7.928;2023-02-28T03:11:07;100656.78;;;1.28;65.87
30730;BME280;17476;48.458;7.928;2023-02-28T03:19:48;100647.63;;;1.38;66.17
30730;BME280;17476;48.458;7.928;2023-02-28T03:25:28;100643.00;;;1.29;67.57
30730;BME280;17476;48.458;7.928;2023-02-28T03:31:07;100641.25;;;1.29;67.94
30730;BME280;17476;48.458;7.928;2023-02-28T03:33:47;100641.16;;;1.31;67.49
30730;BME280;17476;48.458;7.928;2023-02-28T03:36:25;100644.47;;;1.33;66.82
30730;BME280;17476;48.458;7.928;2023-02-28T03:39:01;100637.28;;;1.24;67.84
30730;BME280;17476;48.458;7.928;2023-02-28T03:41:36;100644.91;;;1.25;67.98
30730;BME280;17476;48.458;7.928;2023-02-28T03:44:13;100646.66;;;1.25;68.50
30730;BME280;17476;48.458;7.928;2023-02-28T03:47:03;100644.72;;;1.28;68.31
30730;BME280;17476;48.458;7.928;2023-02-28T03:49:49;100647.72;;;1.36;68.30
30730;BME280;17476;48.458;7.928;2023-02-28T03:52:18;100646.97;;;1.34;68.50
30730;BME280;17476;48.458;7.928;2023-02-28T03:54:52;100650.78;;;1.43;68.95
30730;BME280;17476;48.458;7.928;2023-02-28T03:57:35;100648.84;;;1.47;68.43
30730;BME280;17476;48.458;7.928;2023-02-28T04:00:18;100646.16;;;1.48;68.95
30730;BME280;17476;48.458;7.928;2023-02-28T04:02:45;100646.16;;;1.48;69.13
30730;BME280;17476;48.458;7.928;2023-02-28T04:05:11;100652.44;;;1.44;68.08
30730;BME280;17476;48.458;7.928;2023-02-28T04:07:37;100646.44;;;1.44;67.49
30730;BME280;17476;48.458;7.928;2023-02-28T04:10:04;100648.56;;;1.37;68.85
30730;BME280;17476;48.458;7.928;2023-02-28T04:12:30;100649.38;;;1.38;69.60
30730;BME280;17476;48.458;7.928;2023-02-28T04:14:56;100650.69;;;1.45;68.18
30730;BME280;17476;48.458;7.928;2023-02-28T04:17:22;100653.34;;;1.43;68.46
30730;BME280;17476;48.458;7.928;2023-02-28T04:19:47;100654.34;;;1.41;68.68
30730;BME280;17476;48.458;7.928;2023-02-28T04:22:13;100660.31;;;1.41;68.71
30730;BME280;17476;48.458;7.928;2023-02-28T04:24:39;100650.84;;;1.42;67.79
30730;BME280;17476;48.458;7.928;2023-02-28T04:27:08;100646.81;;;1.38;69.57
30730;BME280;17476;48.458;7.928;2023-02-28T04:29:34;100652.09;;;1.34;69.08
30730;BME280;17476;48.458;7.928;2023-02-28T04:32:01;100648.81;;;1.32;68.50
30730;BME280;17476;48.458;7.928;2023-02-28T04:34:30;100647.25;;;1.30;69.20
30730;BME280;17476;48.458;7.928;2023-02-28T04:36:57;100650.06;;;1.25;69.14
30730;BME280;17476;48.458;7.928;2023-02-28T04:39:24;100652.41;;;1.14;69.32
30730;BME280;17476;48.458;7.928;2023-02-28T04:41:50;100642.19;;;1.13;69.68
30730;BME280;17476;48.458;7.928;2023-02-28T04:44:17;100649.00;;;1.14;68.96
30730;BME280;17476;48.458;7.928;2023-02-28T04:46:43;100645.59;;;1.13;70.00
30730;BME280;17476;48.458;7.928;2023-02-28T04:49:12;100647.34;;;1.13;69.13
30730;BME280;17476;48.458;7.928;2023-02-28T04:51:38;100644.84;;;1.11;68.73
30730;BME280;17476;48.458;7.928;2023-02-28T04:54:04;100650.34;;;1.05;68.15
30730;BME280;17476;48.458;7.928;2023-02-28T04:56:30;100664.28;;;1.01;68.91
30730;BME280;17476;48.458;7.928;2023-02-28T04:58:56;100650.78;;;0.97;69.15
30730;BME280;17476;48.458;7.928;2023-02-28T05:01:29;100655.00;;;0.98;70.02
30730;BME280;17476;48.458;7.928;2023-02-28T05:03:57;100657.75;;;0.95;69.30
30730;BME280;17476;48.458;7.928;2023-02-28T05:06:26;100657.81;;;0.94;69.93
30730;BME280;17476;48.458;7.928;2023-02-28T05:08:53;100661.16;;;0.96;69.74
30730;BME280;17476;48.458;7.928;2023-02-28T05:11:24;100657.50;;;1.00;68.42
30730;BME280;17476;48.458;7.928;2023-02-28T05:13:52;100666.31;;;0.96;69.49
30730;BME280;17476;48.458;7.928;2023-02-28T05:16:19;100664.72;;;0.93;68.75
30730;BME280;17476;48.458;7.928;2023-02-28T05:18:45;100659.16;;;0.85;69.78
30730;BME280;17476;48.458;7.928;2023-02-28T05:21:40;100661.94;;;0.82;69.87
30730;BME280;17476;48.458;7.928;2023-02-28T05:24:11;100666.91;;;0.85;70.59
30730;BME280;17476;48.458;7.928;2023-02-28T05:26:42;100662.06;;;0.79;70.89
30730;BME280;17476;48.458;7.928;2023-02-28T05:29:09;100650.31;;;0.75;70.65
30730;BME280;17476;48.458;7.928;2023-02-28T05:31:35;100659.81;;;0.73;71.82
30730;BME280;17476;48.458;7.928;2023-02-28T05:34:02;100659.28;;;0.68;71.23
30730;BME280;17476;48.458;7.928;2023-02-28T05:36:30;100655.94;;;0.66;71.77
30730;BME280;17476;48.458;7.928;2023-02-28T05:38:56;100662.66;;;0.52;72.09
30730;BME280;17476;48.458;7.928;2023-02-28T05:41:22;100667.38;;;0.44;72.24
30730;BME280;17476;48.458;7.928;2023-02-28T05:43:48;100670.13;;;0.41;72.29
30730;BME280;17476;48.458;7.928;2023-02-28T05:46:15;100660.81;;;0.39;72.91
30730;BME280;17476;48.458;7.928;2023-02-28T05:48:42;100677.25;;;0.36;72.16
30730;BME280;17476;48.458;7.928;2023-02-28T05:51:11;100662.41;;;0.41;72.44
30730;BME280;17476;48.458;7.928;2023-02-28T05:53:36;100666.78;;;0.39;72.40
30730;BME280;17476;48.458;7.928;2023-02-28T05:56:03;100667.38;;;0.44;72.27
30730;BME280;17476;48.458;7.928;2023-02-28T05:58:29;100670.13;;;0.41;71.70
30730;BME280;17476;48.458;7.928;2023-02-28T06:00:59;100674.34;;;0.42;72.04
30730;BME280;17476;48.458;7.928;2023-02-28T06:03:26;100675.91;;;0.45;72.04
30730;BME280;17476;48.458;7.928;2023-02-28T06:05:52;100670.13;;;0.41;72.16
30730;BME280;17476;48.458;7.928;2023-02-28T06:08:18;100671.78;;;0.42;72.01
30730;BME280;17476;48.458;7.928;2023-02-28T06:10:44;100675.19;;;0.43;73.02
30730;BME280;17476;48.458;7.928;2023-02-28T06:13:10;100677.50;;;0.47;72.36
30730;BME280;17476;48.458;7.928;2023-02-28T06:15:38;100677.34;;;0.50;72.80
30730;BME280;17476;48.458;7.928;2023-02-28T06:18:04;100678.75;;;0.56;72.76
30730;BME280;17476;48.458;7.928;2023-02-28T06:20:30;100684.66;;;0.58;72.72
30730;BME280;17476;48.458;7.928;2023-02-28T06:22:59;100684.50;;;0.61;72.33
30730;BME280;17476;48.458;7.928;2023-02-28T06:25:27;100682.44;;;0.68;73.15
30730;BME280;17476;48.458;7.928;2023-02-28T06:27:54;100701.19;;;0.70;73.23
30730;BME280;17476;48.458;7.928;2023-02-28T06:30:20;100695.03;;;0.72;72.20
30730;BME280;17476;48.458;7.928;2023-02-28T06:32:53;100699.13;;;0.76;72.37
30730;BME280;17476;48.458;7.928;2023-02-28T06:35:19;100694.06;;;0.75;72.03
30730;BME280;17476;48.458;7.928;2023-02-28T06:37:45;100700.78;;;0.77;72.13
30730;BME280;17476;48.458;7.928;2023-02-28T06:40:13;100705.00;;;0.78;72.34
30730;BME280;17476;48.458;7.928;2023-02-28T06:42:39;100710.06;;;0.80;72.43
30730;BME280;17476;48.458;7.928;2023-02-28T06:45:06;100706.19;;;0.89;72.42
30730;BME280;17476;48.458;7.928;2023-02-28T06:47:36;100706.84;;;0.92;72.44
30730;BME280;17476;48.458;7.928;2023-02-28T06:50:03;100710.00;;;0.97;72.11
30730;BME280;17476;48.458;7.928;2023-02-28T06:52:30;100715.47;;;0.91;71.82
30730;BME280;17476;48.458;7.928;2023-02-28T06:54:56;100713.41;;;0.98;72.61
30730;BME280;17476;48.458;7.928;2023-02-28T06:57:29;100709.34;;;1.09;72.70
30730;BME280;17476;48.458;7.928;2023-02-28T06:59:59;100712.47;;;1.15;71.59
30730;BME280;17476;48.458;7.928;2023-02-28T07:02:26;100716.56;;;1.19;71.58
30730;BME280;17476;48.458;7.928;2023-02-28T07:04:52;100717.47;;;1.18;72.42
30730;BME280;17476;48.458;7.928;2023-02-28T07:07:18;100715.81;;;1.17;72.12
30730;BME280;17476;48.458;7.928;2023-02-28T07:09:44;100720.97;;;1.17;72.41
30730;BME280;17476;48.458;7.928;2023-02-28T07:12:10;100718.31;;;1.18;72.69
30730;BME280;17476;48.458;7.928;2023-02-28T07:14:37;100716.47;;;1.20;72.42
30730;BME280;17476;48.458;7.928;2023-02-28T07:17:03;100718.47;;;1.31;72.31
30730;BME280;17476;48.458;7.928;2023-02-28T07:19:28;100722.59;;;1.33;72.25
30730;BME280;17476;48.458;7.928;2023-02-28T07:21:54;100725.75;;;1.39;72.15
30730;BME280;17476;48.458;7.928;2023-02-28T07:24:20;100724.94;;;1.38;71.46
30730;BME280;17476;48.458;7.928;2023-02-28T07:26:49;100728.53;;;1.35;72.19
30730;BME280;17476;48.458;7.928;2023-02-28T07:29:15;100726.09;;;1.32;71.89
30730;BME280;17476;48.458;7.928;2023-02-28T07:31:40;100731.09;;;1.35;71.20
30730;BME280;17476;48.458;7.928;2023-02-28T07:34:06;100725.50;;;1.27;71.94
30730;BME280;17476;48.458;7.928;2023-02-28T07:36:32;100726.91;;;1.33;73.19
30730;BME280;17476;48.458;7.928;2023-02-28T07:38:58;100727.41;;;1.40;72.76
30730;BME280;17476;48.458;7.928;2023-02-28T07:41:24;100728.25;;;1.40;72.35
30730;BME280;17476;48.458;7.928;2023-02-28T07:43:55;100717.59;;;1.46;71.81
30730;BME280;17476;48.458;7.928;2023-02-28T07:46:23;100718.03;;;1.39;71.32
30730;BME280;17476;48.458;7.928;2023-02-28T07:48:48;100721.81;;;1.47;72.55
30730;BME280;17476;48.458;7.928;2023-02-28T07:51:14;100723.91;;;1.56;72.48
30730;BME280;17476;48.458;7.928;2023-02-28T07:53:40;100723.47;;;1.48;71.58
30730;BME280;17476;48.458;7.928;2023-02-28T07:56:07;100719.63;;;1.55;72.30
30730;BME280;17476;48.458;7.928;2023-02-28T07:58:33;100720.31;;;1.59;71.91
30730;BME280;17476;48.458;7.928;2023-02-28T08:01:09;100723.47;;;1.64;71.23
30730;BME280;17476;48.458;7.928;2023-02-28T08:03:36;100725.34;;;1.76;71.43
30730;BME280;17476;48.458;7.928;2023-02-28T08:06:07;100722.41;;;1.82;72.03
30730;BME280;17476;48.458;7.928;2023-02-28T08:08:33;100721.97;;;1.90;71.84
30730;BME280;17476;48.458;7.928;2023-02-28T08:11:01;100725.88;;;1.97;71.63
30730;BME280;17476;48.458;7.928;2023-02-28T08:13:28;100729.44;;;1.95;71.25
30730;BME280;17476;48.458;7.928;2023-02-28T08:15:55;100740.22;;;2.01;73.51
30730;BME280;17476;48.458;7.928;2023-02-28T08:18:22;100733.88;;;2.07;71.92
30730;BME280;17476;48.458;7.928;2023-02-28T08:20:48;100738.56;;;2.00;72.14
30730;BME280;17476;48.458;7.928;2023-02-28T08:23:14;100740.41;;;1.98;71.24
30730;BME280;17476;48.458;7.928;2023-02-28T08:25:40;100743.91;;;1.97;72.35
30730;BME280;17476;48.458;7.928;2023-02-28T08:28:06;100743.19;;;2.09;74.43
30730;BME280;17476;48.458;7.928;2023-02-28T08:30:32;100743.00;;;2.12;70.74
30730;BME280;17476;48.458;7.928;2023-02-28T08:32:57;100740.44;;;2.12;72.38
30730;BME280;17476;48.458;7.928;2023-02-28T08:35:23;100740.19;;;2.17;72.18
30730;BME280;17476;48.458;7.928;2023-02-28T08:37:50;100742.75;;;2.17;71.69
30730;BME280;17476;48.458;7.928;2023-02-28T08:40:16;100744.47;;;2.16;73.99
30730;BME280;17476;48.458;7.928;2023-02-28T08:42:48;100743.97;;;2.26;73.11
30730;BME280;17476;48.458;7.928;2023-02-28T08:45:14;100744.59;;;2.29;71.99
30730;BME280;17476;48.458;7.928;2023-02-28T08:47:41;100744.22;;;2.35;74.78
30730;BME280;17476;48.458;7.928;2023-02-28T08:50:07;100747.94;;;2.45;71.61
30730;BME280;17476;48.458;7.928;2023-02-28T08:52:33;100742.88;;;2.44;72.42
30730;BME280;17476;48.458;7.928;2023-02-28T08:55:00;100742.78;;;2.45;72.53
30730;BME280;17476;48.458;7.928;2023-02-28T08:57:26;100754.28;;;2.54;71.37
30730;BME280;17476;48.458;7.928;2023-02-28T08:59:52;100745.88;;;2.51;71.79
30730;BME280;17476;48.458;7.928;2023-02-28T09:02:19;100743.31;;;2.51;71.61
30730;BME280;17476;48.458;7.928;2023-02-28T09:04:45;100751.81;;;2.53;71.96
30730;BME280;17476;48.458;7.928;2023-02-28T09:07:11;100757.69;;;2.55;70.66
30730;BME280;17476;48.458;7.928;2023-02-28T09:09:37;100753.94;;;2.60;70.50
30730;BME280;17476;48.458;7.928;2023-02-28T09:12:26;100748.88;;;2.59;69.69
30730;BME280;17476;48.458;7.928;2023-02-28T09:14:53;100751.91;;;2.65;72.44
30730;BME280;17476;48.458;7.928;2023-02-28T09:17:19;100755.13;;;2.69;69.89
30730;BME280;17476;48.458;7.928;2023-02-28T09:19:48;100759.44;;;2.68;70.79
30730;BME280;17476;48.458;7.928;2023-02-28T09:22:14;100753.91;;;2.74;71.96
30730;BME280;17476;48.458;7.928;2023-02-28T09:24:40;100755.31;;;2.80;70.73
30730;BME280;17476;48.458;7.928;2023-02-28T09:27:06;100748.75;;;2.89;69.64
30730;BME280;17476;48.458;7.928;2023-02-28T09:29:34;100750.22;;;2.93;70.58
30730;BME280;17476;48.458;7.928;2023-02-28T09:32:00;100753.91;;;2.89;70.39
30730;BME280;17476;48.458;7.928;2023-02-28T09:34:27;100750.59;;;2.87;70.40
30730;BME280;17476;48.458;7.928;2023-02-28T09:36:56;100755.50;;;2.91;69.60
30730;BME280;17476;48.458;7.928;2023-02-28T09:39:23;100753.72;;;2.92;69.37
30730;BME280;17476;48.458;7.928;2023-02-28T09:41:52;100753.06;;;3.03;69.34
30730;BME280;17476;48.458;7.928;2023-02-28T09:44:38;100754.63;;;3.05;71.13
30730;BME280;17476;48.458;7.928;2023-02-28T09:47:32;100757.66;;;3.12;68.19
30730;BME280;17476;48.458;7.928;2023-02-28T09:50:21;100759.22;;;3.14;65.88
30730;BME280;17476;48.458;7.928;2023-02-28T09:52:50;100757.56;;;3.13;67.26
30730;BME280;17476;48.458;7.928;2023-02-28T09:56:08;100762.72;;;3.13;68.03
30730;BME280;17476;48.458;7.928;2023-02-28T09:59:24;100755.03;;;3.26;67.98
30730;BME280;17476;48.458;7.928;2023-02-28T10:01:41;100761.75;;;3.28;68.15
30730;BME280;17476;48.458;7.928;2023-02-28T10:04:47;100761.47;;;3.33;66.33
30730;BME280;17476;48.458;7.928;2023-02-28T10:07:56;100771.06;;;3.31;67.85
30730;BME280;17476;48.458;7.928;2023-02-28T10:10:37;100763.38;;;3.44;69.33
30730;BME280;17476;48.458;7.928;2023-02-28T10:13:37;100761.66;;;3.57;66.86
30730;BME280;17476;48.458;7.928;2023-02-28T10:18:53;100767.22;;;3.51;67.13
30730;BME280;17476;48.458;7.928;2023-02-28T10:21:38;100770.25;;;3.58;65.86
30730;BME280;17476;48.458;7.928;2023-02-28T10:24:39;100769.09;;;3.49;65.10
30730;BME280;17476;48.458;7.928;2023-02-28T10:27:21;100772.59;;;3.48;65.66
30730;BME280;17476;48.458;7.928;2023-02-28T10:29:56;100774.03;;;3.39;65.04
30730;BME280;17476;48.458;7.928;2023-02-28T10:32:31;100769.69;;;3.40;67.93
30730;BME280;17476;48.458;7.928;2023-02-28T10:35:20;100765.19;;;3.56;67.73
30730;BME280;17476;48.458;7.928;2023-02-28T10:37:55;100756.81;;;3.65;65.28
30730;BME280;17476;48.458;7.928;2023-02-28T10:42:58;100764.94;;;3.86;65.48
30730;BME280;17476;48.458;7.928;2023-02-28T10:45:26;100758.16;;;3.98;64.48
30730;BME280;17476;48.458;7.928;2023-02-28T10:47:59;100758.69;;;4.03;64.69
30730;BME280;17476;48.458;7.928;2023-02-28T10:50:42;100759.81;;;4.11;65.31
30730;BME280;17476;48.458;7.928;2023-02-28T10:53:28;100759.13;;;4.22;65.00
30730;BME280;17476;48.458;7.928;2023-02-28T11:01:22;100770.72;;;4.55;63.79
30730;BME280;17476;48.458;7.928;2023-02-28T11:03:50;100766.03;;;4.60;62.96
30730;BME280;17476;48.458;7.928;2023-02-28T11:06:20;100764.50;;;4.70;61.61
30730;BME280;17476;48.458;7.928;2023-02-28T11:08:54;100768.97;;;4.68;62.15
30730;BME280;17476;48.458;7.928;2023-02-28T11:11:24;100764.38;;;4.72;61.22
30730;BME280;17476;48.458;7.928;2023-02-28T11:13:54;100771.97;;;4.75;61.71
30730;BME280;17476;48.458;7.928;2023-02-28T11:16:22;100760.72;;;4.87;61.28
30730;BME280;17476;48.458;7.928;2023-02-28T11:18:57;100773.59;;;4.88;61.31
30730;BME280;17476;48.458;7.928;2023-02-28T11:21:36;100769.84;;;4.80;60.23
30730;BME280;17476;48.458;7.928;2023-02-28T11:24:35;100767.66;;;4.86;60.53
30730;BME280;17476;48.458;7.928;2023-02-28T11:27:03;100762.81;;;4.95;60.17
30730;BME280;17476;48.458;7.928;2023-02-28T11:29:32;100770.47;;;4.96;60.90
30730;BME280;17476;48.458;7.928;2023-02-28T11:32:19;100765.47;;;5.06;58.88
30730;BME280;17476;48.458;7.928;2023-02-28T11:34:59;100767.34;;;5.04;60.07
30730;BME280;17476;48.458;7.928;2023-02-28T11:37:28;100766.16;;;5.08;57.38
30730;BME280;17476;48.458;7.928;2023-02-28T11:39:54;100770.44;;;5.09;59.08
30730;BME280;17476;48.458;7.928;2023-02-28T11:45:55;100768.19;;;5.28;59.60
30730;BME280;17476;48.458;7.928;2023-02-28T11:48:32;100763.84;;;5.29;57.03
30730;BME280;17476;48.458;7.928;2023-02-28T11:51:21;100758.59;;;5.41;59.50
30730;BME280;17476;48.458;7.928;2023-02-28T11:54:27;100756.19;;;5.51;59.57
30730;BME280;17476;48.458;7.928;2023-02-28T11:57:24;100760.25;;;5.66;59.51
30730;BME280;17476;48.458;7.928;2023-02-28T12:03:01;100755.25;;;5.87;56.94
30730;BME280;17476;48.458;7.928;2023-02-28T12:05:47;100747.41;;;6.00;57.62
30730;BME280;17476;48.458;7.928;2023-02-28T12:14:49;100740.72;;;6.20;56.14
30730;BME280;17476;48.458;7.928;2023-02-28T12:21:04;100739.72;;;6.45;54.54
30730;BME280;17476;48.458;7.928;2023-02-28T12:26:23;100738.28;;;6.63;55.84
30730;BME280;17476;48.458;7.928;2023-02-28T12:34:31;100729.53;;;6.98;54.75
30730;BME280;17476;48.458;7.928;2023-02-28T12:37:25;100721.31;;;7.14;55.64
30730;BME280;17476;48.458;7.928;2023-02-28T12:40:01;100718.25;;;7.20;52.32
30730;BME280;17476;48.458;7.928;2023-02-28T12:42:57;100722.28;;;7.13;52.85
30730;BME280;17476;48.458;7.928;2023-02-28T12:45:27;100713.94;;;7.30;51.51
30730;BME280;17476;48.458;7.928;2023-02-28T12:48:01;100715.03;;;7.27;51.67
30730;BME280;17476;48.458;7.928;2023-02-28T12:50:29;100715.03;;;7.27;51.65
30730;BME280;17476;48.458;7.928;2023-02-28T12:53:35;100709.31;;;7.65;53.54
30730;BME280;17476;48.458;7.928;2023-02-28T12:59:54;100707.59;;;7.76;51.03
30730;BME280;17476;48.458;7.928;2023-02-28T13:05:29;100718.56;;;7.58;51.42
30730;BME280;17476;48.458;7.928;2023-02-28T13:10:49;100706.00;;;7.84;52.25
30730;BME280;17476;48.458;7.928;2023-02-28T13:13:25;100702.19;;;7.68;49.17
30730;BME280;17476;48.458;7.928;2023-02-28T13:16:07;100708.25;;;7.89;51.25
30730;BME280;17476;48.458;7.928;2023-02-28T13:18:38;100709.88;;;7.90;51.12
30730;BME280;17476;48.458;7.928;2023-02-28T13:21:27;100699.13;;;8.04;51.31
30730;BME280;17476;48.458;7.928;2023-02-28T13:24:02;100707.91;;;8.03;50.79
30730;BME280;17476;48.458;7.928;2023-02-28T13:32:28;100711.66;;;8.10;49.52
30730;BME280;17476;48.458;7.928;2023-02-28T13:40:32;100702.97;;;8.52;48.72
30730;BME280;17476;48.458;7.928;2023-02-28T13:43:03;100700.81;;;8.66;47.63
30730;BME280;17476;48.458;7.928;2023-02-28T13:45:32;100700.72;;;8.68;47.37
30730;BME280;17476;48.458;7.928;2023-02-28T13:48:16;100704.97;;;8.69;48.60
30730;BME280;17476;48.458;7.928;2023-02-28T13:50:44;100697.97;;;8.79;48.66
30730;BME280;17476;48.458;7.928;2023-02-28T13:59:20;100701.31;;;8.91;46.96
30730;BME280;17476;48.458;7.928;2023-02-28T14:05:15;100690.41;;;9.36;46.15
30730;BME280;17476;48.458;7.928;2023-02-28T14:07:48;100692.69;;;9.68;47.43
30730;BME280;17476;48.458;7.928;2023-02-28T14:10:29;100689.59;;;10.11;46.86
30730;BME280;17476;48.458;7.928;2023-02-28T14:15:59;100685.22;;;11.21;43.09
30730;BME280;17476;48.458;7.928;2023-02-28T14:18:37;100687.16;;;11.37;43.41
30730;BME280;17476;48.458;7.928;2023-02-28T14:21:31;100686.03;;;11.40;43.74
30730;BME280;17476;48.458;7.928;2023-02-28T14:27:15;100671.88;;;11.51;42.29
30730;BME280;17476;48.458;7.928;2023-02-28T14:32:34;100665.94;;;11.84;40.70
30730;BME280;17476;48.458;7.928;2023-02-28T14:37:51;100666.38;;;12.06;40.01
30730;BME280;17476;48.458;7.928;2023-02-28T14:40:33;100671.81;;;12.12;40.68
30730;BME280;17476;48.458;7.928;2023-02-28T14:43:06;100667.09;;;12.16;39.05
30730;BME280;17476;48.458;7.928;2023-02-28T14:45:43;100676.63;;;12.17;39.97
30730;BME280;17476;48.458;7.928;2023-02-28T14:48:10;100670.25;;;12.19;38.48
30730;BME280;17476;48.458;7.928;2023-02-28T14:50:37;100670.94;;;12.29;39.15
30730;BME280;17476;48.458;7.928;2023-02-28T14:53:03;100668.31;;;12.29;38.89
30730;BME280;17476;48.458;7.928;2023-02-28T14:55:35;100666.16;;;12.25;40.14
30730;BME280;17476;48.458;7.928;2023-02-28T14:58:24;100665.69;;;12.29;39.40
30730;BME280;17476;48.458;7.928;2023-02-28T15:00:53;100663.44;;;12.35;39.59
30730;BME280;17476;48.458;7.928;2023-02-28T15:03:37;100662.22;;;12.21;38.09
30730;BME280;17476;48.458;7.928;2023-02-28T15:06:21;100656.19;;;12.28;38.80
30730;BME280;17476;48.458;7.928;2023-02-28T15:08:48;100660.28;;;12.31;40.00
30730;BME280;17476;48.458;7.928;2023-02-28T15:11:32;100661.84;;;12.42;39.22